^^
Station Historical Data
Daily Summary for October 23, 2017 Units:  English    Metric   Both
« Previous Day
Next Day »
Daily Weekly Monthly Yearly Custom
  High: Low: Average:
Temperature: 72.4 °F 57.2 °F 64.7 °F
Dew Point: 65.3 °F 55.2 °F 60.9 °F
Humidity: 97% 72% 88%
Wind Speed: 5.0mph 0.0mph 1.1mph
Wind Gust: 13.0mph - -
Wind- - SSW
Pressure: 30.38 in 29.99 in -
Precipitation: 0.00 in    
Historical Graphs
 
 
Tabular Data for October 23, 2017
Time Temperature Dew Point Pressure Wind Wind Speed Wind Gust Humidity Rainfall Rate (Hourly) Conditions
00:00 57.8 °F 55.2 °F 30.38 in Calm   2.0 mph 91% 0.00 in CLR
00:10 57.8 °F 55.5 °F 30.38 in Calm   2.0 mph 92% 0.00 in CLR
00:20 57.8 °F 55.5 °F 30.38 in Calm   2.0 mph 92% 0.00 in CLR
00:29 58.2 °F 56.4 °F 30.38 in Calm   2.0 mph 94% 0.00 in CLR
00:39 58.4 °F 56.7 °F 30.37 in Calm   6.0 mph 94% 0.00 in CLR
00:49 58.3 °F 56.6 °F 30.37 in Calm   3.0 mph 94% 0.00 in CLR
00:59 58.2 °F 56.5 °F 30.37 in Calm   1.0 mph 94% 0.00 in CLR
01:10 58.2 °F 56.5 °F 30.37 in Calm   1.0 mph 94% 0.00 in CLR
01:19 58.0 °F 56.6 °F 30.37 in Calm   2.0 mph 95% 0.00 in CLR
01:29 58.1 °F 56.6 °F 30.37 in Calm   3.0 mph 95% 0.00 in CLR
01:40 58.0 °F 56.6 °F 30.36 in Calm   3.0 mph 95% 0.00 in CLR
01:49 58.0 °F 56.6 °F 30.36 in Calm   2.0 mph 95% 0.00 in CLR
02:00 57.9 °F 56.5 °F 30.36 in Calm   1.0 mph 95% 0.00 in CLR
02:09 57.8 °F 56.7 °F 30.35 in Calm   1.0 mph 96% 0.00 in BKN
02:20 57.8 °F 56.7 °F 30.35 in Calm   1.0 mph 96% 0.00 in BKN
02:29 57.6 °F 56.5 °F 30.34 in Calm   2.0 mph 96% 0.00 in BKN
02:40 57.4 °F 56.3 °F 30.34 in Calm   2.0 mph 96% 0.00 in BKN
02:49 57.2 °F 56.1 °F 30.34 in Calm   2.0 mph 96% 0.00 in BKN
02:59 57.2 °F 56.1 °F 30.34 in Calm   2.0 mph 96% 0.00 in BKN
03:10 57.7 °F 56.8 °F 30.34 in Calm   1.0 mph 97% 0.00 in CLR
03:20 57.9 °F 57.1 °F 30.34 in Calm   2.0 mph 97% 0.00 in CLR
03:30 58.0 °F 56.9 °F 30.34 in Calm   2.0 mph 96% 0.00 in CLR
03:39 58.0 °F 56.9 °F 30.34 in Calm   1.0 mph 96% 0.00 in CLR
03:49 58.2 °F 57.4 °F 30.34 in Calm   1.0 mph 97% 0.00 in CLR
03:59 58.5 °F 57.7 °F 30.34 in Calm   1.0 mph 97% 0.00 in CLR
04:09 58.6 °F 57.8 °F 30.33 in Calm   1.0 mph 97% 0.00 in CLR
04:20 58.8 °F 58.0 °F 30.34 in Calm   2.0 mph 97% 0.00 in CLR
04:30 59.0 °F 58.2 °F 30.34 in Calm   1.0 mph 97% 0.00 in CLR
04:40 59.1 °F 58.2 °F 30.34 in Calm   1.0 mph 97% 0.00 in CLR
04:49 59.2 °F 58.3 °F 30.34 in Calm   1.0 mph 97% 0.00 in CLR
05:00 59.1 °F 58.2 °F 30.34 in Calm   1.0 mph 97% 0.00 in CLR
05:09 59.1 °F 58.2 °F 30.34 in Calm   1.0 mph 97% 0.00 in CLR
05:20 59.1 °F 58.2 °F 30.34 in Calm   1.0 mph 97% 0.00 in CLR
05:29 59.2 °F 58.3 °F 30.34 in Calm   1.0 mph 97% 0.00 in CLR
05:39 59.3 °F 58.4 °F 30.33 in Calm   2.0 mph 97% 0.00 in CLR
05:50 59.3 °F 58.4 °F 30.33 in Calm   1.0 mph 97% 0.00 in CLR
05:59 59.4 °F 58.5 °F 30.34 in Calm   1.0 mph 97% 0.00 in CLR
06:10 59.5 °F 58.6 °F 30.33 in Calm   1.0 mph 97% 0.00 in CLR
06:20 59.6 °F 58.7 °F 30.33 in Calm   1.0 mph 97% 0.00 in CLR
06:30 59.6 °F 58.7 °F 30.33 in Calm   1.0 mph 97% 0.00 in CLR
06:40 59.5 °F 58.7 °F 30.32 in Calm   2.0 mph 97% 0.00 in CLR
06:49 59.6 °F 58.7 °F 30.32 in Calm   2.0 mph 97% 0.00 in CLR
06:59 59.7 °F 58.8 °F 30.32 in Calm   1.0 mph 97% 0.00 in CLR
07:10 59.8 °F 59.0 °F 30.32 in Calm   1.0 mph 97% 0.00 in CLR
07:20 60.0 °F 59.1 °F 30.32 in Calm   3.0 mph 97% 0.00 in CLR
07:29 60.1 °F 59.3 °F 30.32 in Calm   1.0 mph 97% 0.00 in CLR
07:39 60.2 °F 59.3 °F 30.32 in Calm   1.0 mph 97% 0.00 in CLR
07:49 60.2 °F 59.3 °F 30.32 in Calm   3.0 mph 97% 0.00 in CLR
07:59 60.3 °F 59.4 °F 30.32 in Calm   2.0 mph 97% 0.00 in CLR
08:09 60.5 °F 59.6 °F 30.32 in Calm   2.0 mph 97% 0.00 in CLR
08:19 60.7 °F 59.8 °F 30.32 in Calm   1.0 mph 97% 0.00 in CLR
08:29 60.9 °F 60.0 °F 30.32 in Calm   1.0 mph 97% 0.00 in CLR
08:39 61.0 °F 60.1 °F 30.32 in West 1.0 mph 2.0 mph 97% 0.00 in CLR
08:50 61.2 °F 60.3 °F 30.32 in WSW 1.0 mph 2.0 mph 97% 0.00 in CLR
08:59 61.4 °F 60.5 °F 30.32 in Calm   2.0 mph 97% 0.00 in CLR
09:09 61.5 °F 60.7 °F 30.32 in Calm   2.0 mph 97% 0.00 in BKN
09:19 61.6 °F 60.7 °F 30.32 in Calm   2.0 mph 97% 0.00 in BKN
09:30 61.8 °F 60.9 °F 30.31 in Calm   3.0 mph 97% 0.00 in BKN
09:39 62.0 °F 61.1 °F 30.31 in Calm   3.0 mph 97% 0.00 in BKN
09:49 62.3 °F 61.4 °F 30.30 in Calm   3.0 mph 97% 0.00 in BKN
09:59 62.5 °F 61.6 °F 30.30 in SW 1.0 mph 4.0 mph 97% 0.00 in BKN
10:09 62.8 °F 61.9 °F 30.30 in WSW 1.0 mph 4.0 mph 97% 0.00 in BKN
10:30 63.7 °F 62.8 °F 30.29 in SW 3.0 mph 8.0 mph 97% 0.00 in BKN
10:39 64.4 °F 63.2 °F 30.28 in South 1.0 mph 5.0 mph 96% 0.00 in BKN
10:49 65.1 °F 63.6 °F 30.28 in South 1.0 mph 6.0 mph 95% 0.00 in BKN
10:59 65.5 °F 63.1 °F 30.27 in Calm   6.0 mph 92% 0.00 in BKN
11:09 66.7 °F 63.6 °F 30.27 in SW 1.0 mph 9.0 mph 90% 0.00 in BKN
11:19 67.5 °F 63.9 °F 30.27 in Calm   5.0 mph 88% 0.00 in BKN
11:29 68.5 °F 63.8 °F 30.26 in SSW 2.0 mph 7.0 mph 85% 0.00 in BKN
11:39 69.6 °F 64.2 °F 30.26 in SSE 2.0 mph 10.0 mph 83% 0.00 in BKN
11:49 70.2 °F 64.5 °F 30.26 in WSW 1.0 mph 4.0 mph 82% 0.00 in BKN
12:00 70.9 °F 63.7 °F 30.26 in West 2.0 mph 12.0 mph 78% 0.00 in BKN
12:09 71.4 °F 63.4 °F 30.25 in SW 1.0 mph 6.0 mph 76% 0.00 in BKN
12:19 70.8 °F 62.9 °F 30.25 in South 2.0 mph 13.0 mph 76% 0.00 in BKN
12:29 71.1 °F 63.2 °F 30.24 in SSW 3.0 mph 8.0 mph 76% 0.00 in BKN
12:40 71.0 °F 63.1 °F 30.24 in South 2.0 mph 10.0 mph 76% 0.00 in BKN
12:59 71.1 °F 62.4 °F 30.23 in SW 2.0 mph 9.0 mph 74% 0.00 in BKN
13:09 71.2 °F 62.1 °F 30.23 in SSW 3.0 mph 9.0 mph 73% 0.00 in BKN
13:19 70.9 °F 61.8 °F 30.22 in SSW 5.0 mph 13.0 mph 73% 0.00 in BKN
13:29 70.7 °F 61.6 °F 30.22 in SSW 2.0 mph 6.0 mph 73% 0.00 in BKN
13:40 70.8 °F 61.7 °F 30.22 in SSW 1.0 mph 7.0 mph 73% 0.00 in BKN
13:49 71.0 °F 61.9 °F 30.21 in SW 1.0 mph 7.0 mph 73% 0.00 in BKN
13:59 71.6 °F 62.5 °F 30.21 in SSW 3.0 mph 8.0 mph 73% 0.00 in BKN
14:09 71.8 °F 62.3 °F 30.21 in SSW 3.0 mph 10.0 mph 72% 0.00 in BKN
14:20 71.9 °F 62.4 °F 30.20 in SSW 1.0 mph 10.0 mph 72% 0.00 in BKN
14:29 72.0 °F 62.9 °F 30.19 in WSW 2.0 mph 13.0 mph 73% 0.00 in BKN
14:39 72.4 °F 62.9 °F 30.19 in ESE 3.0 mph 9.0 mph 72% 0.00 in BKN
14:49 71.7 °F 62.6 °F 30.18 in WSW 3.0 mph 8.0 mph 73% 0.00 in BKN
14:59 71.2 °F 62.9 °F 30.18 in SW 2.0 mph 10.0 mph 75% 0.00 in BKN
15:10 71.1 °F 63.1 °F 30.18 in Calm   9.0 mph 76% 0.00 in BKN
15:19 71.5 °F 63.2 °F 30.17 in SSW 1.0 mph 8.0 mph 75% 0.00 in BKN
15:30 71.5 °F 63.1 °F 30.17 in WSW 3.0 mph 10.0 mph 75% 0.00 in BKN
15:40 71.5 °F 63.2 °F 30.16 in SSW 2.0 mph 12.0 mph 75% 0.00 in BKN
15:49 71.4 °F 63.1 °F 30.16 in NNW 3.0 mph 10.0 mph 75% 0.00 in BKN
15:59 71.1 °F 62.8 °F 30.16 in SSE 3.0 mph 10.0 mph 75% 0.00 in BKN
16:10 70.9 °F 62.6 °F 30.16 in SW 3.0 mph 9.0 mph 75% 0.00 in SCT
16:19 70.8 °F 62.5 °F 30.16 in South 2.0 mph 8.0 mph 75% 0.00 in SCT
16:29 70.3 °F 62.0 °F 30.15 in SE 3.0 mph 13.0 mph 75% 0.00 in SCT
16:39 70.1 °F 62.2 °F 30.15 in Calm   6.0 mph 76% 0.00 in SCT
16:50 69.8 °F 61.9 °F 30.15 in South 3.0 mph 10.0 mph 76% 0.00 in SCT
17:00 69.5 °F 62.3 °F 30.15 in SSW 3.0 mph 12.0 mph 78% 0.00 in SCT
17:09 69.3 °F 62.5 °F 30.15 in WSW 2.0 mph 8.0 mph 79% 0.00 in BKN
17:19 69.0 °F 62.3 °F 30.15 in South 3.0 mph 9.0 mph 79% 0.00 in BKN
17:29 68.9 °F 62.4 °F 30.14 in SSW 1.0 mph 12.0 mph 80% 0.00 in BKN
17:39 68.7 °F 62.6 °F 30.13 in SW 3.0 mph 8.0 mph 81% 0.00 in BKN
17:49 68.4 °F 62.3 °F 30.13 in Calm   5.0 mph 81% 0.00 in BKN
17:59 68.2 °F 62.5 °F 30.13 in WSW 1.0 mph 7.0 mph 82% 0.00 in BKN
18:09 68.0 °F 62.3 °F 30.13 in SW 1.0 mph 5.0 mph 82% 0.00 in BKN
18:19 67.9 °F 62.5 °F 30.12 in NW 1.0 mph 4.0 mph 83% 0.00 in BKN
18:29 67.6 °F 62.3 °F 30.12 in WSW 1.0 mph 4.0 mph 83% 0.00 in BKN
18:39 67.5 °F 62.2 °F 30.12 in NW 1.0 mph 5.0 mph 83% 0.00 in BKN
18:49 67.3 °F 62.3 °F 30.12 in SW 1.0 mph 5.0 mph 84% 0.00 in BKN
18:59 67.1 °F 62.1 °F 30.12 in SW 1.0 mph 7.0 mph 84% 0.00 in BKN
19:09 66.9 °F 61.9 °F 30.12 in North 1.0 mph 5.0 mph 84% 0.00 in BKN
19:19 66.8 °F 62.1 °F 30.11 in NW 1.0 mph 3.0 mph 85% 0.00 in BKN
19:39 66.5 °F 62.2 °F 30.11 in Calm   4.0 mph 86% 0.00 in BKN
19:49 66.5 °F 62.2 °F 30.10 in NNE 1.0 mph 5.0 mph 86% 0.00 in BKN
19:59 66.5 °F 62.2 °F 30.09 in NNW 1.0 mph 4.0 mph 86% 0.00 in BKN
20:09 66.6 °F 62.3 °F 30.09 in Calm   4.0 mph 86% 0.00 in BKN
20:19 66.7 °F 62.7 °F 30.09 in West 2.0 mph 6.0 mph 87% 0.00 in BKN
20:29 66.9 °F 62.9 °F 30.09 in WSW 3.0 mph 10.0 mph 87% 0.00 in BKN
20:40 67.1 °F 63.1 °F 30.08 in SSW 2.0 mph 8.0 mph 87% 0.00 in BKN
20:49 67.2 °F 63.2 °F 30.08 in North 2.0 mph 9.0 mph 87% 0.00 in BKN
20:59 67.3 °F 63.3 °F 30.07 in WSW 1.0 mph 10.0 mph 87% 0.00 in BKN
21:10 67.4 °F 63.4 °F 30.07 in WNW 2.0 mph 8.0 mph 87% 0.00 in BKN
21:19 67.4 °F 63.4 °F 30.07 in West 1.0 mph 9.0 mph 87% 0.00 in BKN
21:29 67.5 °F 63.8 °F 30.06 in SW 1.0 mph 5.0 mph 88% 0.00 in BKN
21:39 67.7 °F 64.0 °F 30.06 in East 1.0 mph 5.0 mph 88% 0.00 in BKN
21:49 67.9 °F 64.2 °F 30.06 in SW 2.0 mph 6.0 mph 88% 0.00 in BKN
21:59 68.0 °F 64.3 °F 30.06 in WSW 2.0 mph 8.0 mph 88% 0.00 in BKN
22:09 68.3 °F 64.6 °F 30.06 in SW 3.0 mph 8.0 mph 88% 0.00 in BKN
22:19 68.5 °F 64.5 °F 30.06 in SSW 2.0 mph 12.0 mph 87% 0.00 in BKN
22:29 68.6 °F 64.6 °F 30.06 in SW 3.0 mph 8.0 mph 87% 0.00 in BKN
22:39 68.7 °F 64.3 °F 30.05 in SW 3.0 mph 12.0 mph 86% 0.00 in BKN
22:49 68.7 °F 64.3 °F 30.05 in South 1.0 mph 13.0 mph 86% 0.00 in BKN
22:59 68.7 °F 64.3 °F 30.04 in SW 3.0 mph 12.0 mph 86% 0.00 in BKN
23:10 68.7 °F 64.3 °F 30.03 in SW 3.0 mph 10.0 mph 86% 0.00 in BKN
23:19 68.8 °F 64.8 °F 30.02 in South 3.0 mph 9.0 mph 87% 0.00 in BKN
23:29 68.9 °F 64.8 °F 30.01 in WSW 3.0 mph 12.0 mph 87% 0.00 in BKN
23:39 68.9 °F 65.2 °F 30.00 in SSW 5.0 mph 13.0 mph 88% 0.00 in BKN
23:49 69.0 °F 65.3 °F 30.00 in SW 2.0 mph 12.0 mph 88% 0.00 in BKN
23:59 68.9 °F 65.2 °F 29.99 in SW 3.0 mph 9.0 mph 88% 0.00 in BKN
TarryTown NY Weather
Compliments of Weather Underground - 1.75 mb